Albert, Oklahoma
Current Conditions -  °F | °C
As of 6:55 PM on Friday 24 Oct 2014 (Local Time) from KOJA Reporting Station
Clear Clear  
Wind Chill: 77°   Ceiling: Unl
Heat Index: 79°   Visibility: 10mi
Dew Point: 59°   Wind: 3mph
Humidity: 54%   Direction: 200°SSW
Pressure: 30.03"   Gusts: NA
Location:  35.23°N, 98.41°W
Report Text: KOJA 242355Z AUTO 20003KT 10SM CLR 25/15 A3003 RMK AO2
Loading
Personal Weather Stations






























Interactive Weather Map
Tropical Storm Tracking
New forecast layout! Learn more

10-Day Weather Forecast

Advertisements
Track Severe Weather on mobile